createdAt,value
2022-12-03T00:01:01.946Z,28.48
2022-12-03T00:04:04.128Z,31.30
2022-12-03T00:07:06.243Z,30.17
2022-12-03T00:10:09.029Z,28.87
2022-12-03T00:13:11.036Z,31.75
2022-12-03T00:16:13.060Z,32.38
2022-12-03T00:19:15.334Z,31.67
2022-12-03T00:22:17.282Z,26.63
2022-12-03T00:25:19.291Z,22.67
2022-12-03T00:28:22.792Z,31.70
2022-12-03T00:31:25.858Z,30.40
2022-12-03T00:34:28.046Z,28.87
2022-12-03T00:37:30.210Z,25.47
2022-12-03T00:40:32.343Z,28.48
2022-12-03T00:43:34.357Z,26.05
2022-12-03T00:46:36.418Z,25.00
2022-12-03T00:49:38.808Z,25.47
2022-12-03T00:52:40.826Z,22.17
2022-12-03T00:55:42.825Z,25.40
2022-12-03T00:58:44.859Z,24.52
2022-12-03T01:01:46.918Z,25.67
2022-12-03T01:04:49.143Z,25.50
2022-12-03T01:07:51.306Z,21.87
2022-12-03T01:10:53.340Z,23.87
2022-12-03T01:13:55.350Z,24.27
2022-12-03T01:16:57.408Z,21.98
2022-12-03T01:19:59.508Z,22.17
2022-12-03T01:23:01.454Z,23.70
2022-12-03T01:26:03.523Z,24.67
2022-12-03T01:29:06.253Z,23.23
2022-12-03T01:32:21.923Z,27.25
2022-12-03T01:35:23.970Z,24.00
2022-12-03T01:38:26.059Z,22.97
2022-12-03T01:41:29.083Z,22.50
2022-12-03T01:44:33.355Z,20.95
2022-12-03T01:47:37.143Z,23.20
2022-12-03T01:50:39.332Z,22.03
2022-12-03T01:53:42.811Z,21.83
2022-12-03T01:56:46.322Z,23.58
2022-12-03T01:59:49.512Z,19.65
2022-12-03T02:03:02.381Z,23.20
2022-12-03T02:06:04.791Z,21.57
2022-12-03T02:09:08.773Z,23.17
2022-12-03T02:12:11.490Z,22.33
2022-12-03T02:15:13.874Z,21.12
2022-12-03T02:18:15.903Z,22.85
2022-12-03T02:21:29.600Z,19.67
2022-12-03T02:25:03.350Z,19.37
2022-12-03T02:28:08.429Z,21.73
2022-12-03T02:31:10.742Z,25.77
2022-12-03T02:34:42.789Z,21.25
2022-12-03T02:37:47.528Z,22.10
2022-12-03T02:40:52.874Z,24.50
2022-12-03T02:43:55.016Z,22.30
2022-12-03T02:46:57.099Z,23.85
2022-12-03T02:50:00.042Z,23.20
2022-12-03T02:53:09.335Z,26.97
2022-12-03T02:56:15.537Z,23.53
2022-12-03T02:59:17.622Z,23.10
2022-12-03T03:02:19.968Z,23.50
2022-12-03T03:05:23.830Z,23.90
2022-12-03T03:08:27.360Z,28.57
2022-12-03T03:11:29.574Z,25.80
2022-12-03T03:14:33.080Z,28.42
2022-12-03T03:17:35.529Z,25.12
2022-12-03T03:20:38.600Z,27.33
2022-12-03T03:23:40.850Z,24.60
2022-12-03T03:26:42.866Z,24.13
2022-12-03T03:29:44.943Z,22.65
2022-12-03T03:32:47.025Z,25.67
2022-12-03T03:35:49.755Z,22.55
2022-12-03T03:38:52.291Z,23.03
2022-12-03T03:41:54.350Z,22.77
2022-12-03T03:44:56.594Z,26.15
2022-12-03T03:48:00.433Z,25.95
2022-12-03T03:51:03.952Z,28.25
2022-12-03T03:54:07.130Z,29.37
2022-12-03T03:57:09.158Z,24.53
2022-12-03T04:00:12.269Z,26.58
2022-12-03T04:03:14.298Z,22.85
2022-12-03T04:06:16.481Z,25.35
2022-12-03T04:09:18.528Z,25.63
2022-12-03T04:12:39.204Z,22.77
2022-12-03T04:15:41.198Z,22.35
2022-12-03T04:18:43.191Z,25.85
2022-12-03T04:22:03.809Z,26.70
2022-12-03T04:25:25.454Z,24.57
2022-12-03T04:28:46.247Z,27.47
2022-12-03T04:32:06.905Z,27.48
2022-12-03T04:35:28.617Z,23.12
2022-12-03T04:38:30.857Z,24.75
2022-12-03T04:41:32.903Z,18.13
2022-12-03T04:44:37.961Z,24.93
2022-12-03T04:47:40.213Z,28.45
2022-12-03T04:50:42.290Z,26.17
2022-12-03T04:53:46.321Z,26.90
2022-12-03T04:56:48.628Z,24.73
2022-12-03T04:59:50.548Z,26.40
2022-12-03T05:02:52.790Z,25.20
2022-12-03T05:05:54.795Z,28.60
2022-12-03T05:08:56.750Z,26.67
2022-12-03T05:11:58.717Z,23.47
2022-12-03T05:15:00.801Z,26.60
2022-12-03T05:18:02.859Z,26.83
2022-12-03T05:21:05.163Z,15.27
2022-12-03T05:24:07.331Z,25.15
2022-12-03T05:27:09.309Z,24.27
2022-12-03T05:30:11.644Z,23.70
2022-12-03T05:33:13.913Z,22.45
2022-12-03T05:36:15.969Z,24.75
2022-12-03T05:39:17.954Z,24.75
2022-12-03T05:42:38.313Z,27.57
2022-12-03T05:45:42.479Z,29.43
2022-12-03T05:48:48.071Z,24.77
2022-12-03T05:51:53.742Z,23.92
2022-12-03T05:55:00.034Z,24.67
2022-12-03T05:58:02.106Z,23.70
2022-12-03T06:01:04.371Z,27.93
2022-12-03T06:04:06.571Z,26.77
2022-12-03T06:07:13.779Z,28.05
2022-12-03T06:10:21.832Z,27.80
2022-12-03T06:13:23.843Z,31.07
2022-12-03T06:16:25.839Z,30.40
2022-12-03T06:19:27.844Z,35.50
2022-12-03T06:22:29.948Z,40.72
2022-12-03T06:25:32.009Z,29.25
2022-12-03T06:28:33.931Z,30.70
2022-12-03T06:31:36.564Z,30.50
2022-12-03T06:34:38.841Z,26.52
2022-12-03T06:37:41.397Z,26.98
2022-12-03T06:40:43.401Z,36.63
2022-12-03T06:43:45.314Z,28.20
2022-12-03T06:46:47.608Z,29.10
2022-12-03T06:49:49.730Z,34.40
2022-12-03T06:52:51.774Z,24.27
2022-12-03T06:55:53.733Z,25.10
2022-12-03T06:58:56.195Z,27.17
2022-12-03T07:01:58.930Z,25.27
2022-12-03T07:05:00.975Z,27.25
2022-12-03T07:08:03.121Z,25.00
2022-12-03T07:11:05.441Z,22.60
2022-12-03T07:14:11.537Z,26.40
2022-12-03T07:17:13.815Z,30.40
2022-12-03T07:20:16.479Z,29.08
2022-12-03T07:23:18.383Z,29.70
2022-12-03T07:26:20.476Z,28.58
2022-12-03T07:29:22.490Z,27.53
2022-12-03T07:32:24.549Z,28.03
2022-12-03T07:35:26.670Z,32.33
2022-12-03T07:38:28.736Z,31.75
2022-12-03T07:41:31.185Z,32.40
2022-12-03T07:44:33.240Z,33.83
2022-12-03T07:47:35.228Z,37.20
2022-12-03T07:50:37.346Z,27.30
2022-12-03T07:53:39.319Z,30.00
2022-12-03T07:56:41.296Z,32.03
2022-12-03T07:59:43.319Z,37.73
2022-12-03T08:02:45.417Z,31.80
2022-12-03T08:05:47.603Z,31.23
2022-12-03T08:08:49.653Z,35.53
2022-12-03T08:11:52.315Z,33.65
2022-12-03T08:14:54.542Z,27.63
2022-12-03T08:18:01.142Z,28.40
2022-12-03T08:21:03.137Z,29.63
2022-12-03T08:24:19.806Z,32.70
2022-12-03T08:27:23.777Z,32.08
2022-12-03T08:30:25.915Z,32.77
2022-12-03T08:33:33.771Z,28.47
2022-12-03T08:36:36.605Z,27.45
2022-12-03T08:39:49.795Z,32.67
2022-12-03T08:42:51.832Z,37.05
2022-12-03T08:45:56.305Z,35.30
2022-12-03T08:48:58.510Z,34.70
2022-12-03T08:52:10.448Z,26.92
2022-12-03T08:55:34.482Z,39.70
2022-12-03T08:58:44.756Z,37.70
2022-12-03T09:01:48.442Z,31.73
2022-12-03T09:04:52.230Z,31.13
2022-12-03T09:07:54.393Z,34.30
2022-12-03T09:10:56.754Z,32.88
2022-12-03T09:13:59.138Z,34.38
2022-12-03T09:17:01.195Z,43.27
2022-12-03T09:20:04.624Z,36.47
2022-12-03T09:23:07.319Z,38.97
2022-12-03T09:26:09.369Z,34.97
2022-12-03T09:29:12.546Z,37.38
2022-12-03T09:32:18.334Z,42.73
2022-12-03T09:35:20.899Z,34.90
2022-12-03T09:38:22.886Z,29.75
2022-12-03T09:41:26.327Z,41.35
2022-12-03T09:44:33.675Z,29.50
2022-12-03T09:47:35.684Z,40.07
2022-12-03T09:50:40.546Z,41.73
2022-12-03T09:53:42.730Z,38.63
2022-12-03T09:56:44.714Z,40.12
2022-12-03T09:59:47.809Z,44.28
2022-12-03T10:02:51.674Z,34.67
2022-12-03T10:05:53.983Z,44.43
2022-12-03T10:08:56.581Z,41.35
2022-12-03T10:11:59.997Z,41.65
2022-12-03T10:15:02.339Z,35.67
2022-12-03T10:18:19.244Z,39.73
2022-12-03T10:21:29.382Z,43.67
2022-12-03T10:24:32.858Z,32.55
2022-12-03T10:27:34.916Z,43.92
2022-12-03T10:30:36.960Z,38.85
2022-12-03T10:33:45.033Z,42.67
2022-12-03T10:36:46.974Z,43.53
2022-12-03T10:39:56.210Z,38.53
2022-12-03T10:43:26.891Z,13.13
2022-12-03T10:46:29.001Z,18.92
2022-12-03T10:49:31.070Z,38.67
2022-12-03T10:52:33.288Z,40.67
2022-12-03T10:55:39.887Z,43.70
2022-12-03T10:58:42.455Z,33.80
2022-12-03T11:01:45.018Z,35.00
2022-12-03T11:04:47.266Z,36.47
2022-12-03T11:07:49.673Z,40.27
2022-12-03T11:10:57.897Z,39.42
2022-12-03T11:14:02.392Z,43.05
2022-12-03T11:17:04.314Z,39.30
2022-12-03T11:20:10.725Z,35.20
2022-12-03T11:23:12.700Z,36.17
2022-12-03T11:26:19.638Z,35.35
2022-12-03T11:29:49.898Z,33.45
2022-12-03T11:32:54.974Z,34.22
2022-12-03T11:36:31.778Z,39.70
2022-12-03T11:39:44.901Z,31.53
2022-12-03T11:42:49.033Z,30.65
2022-12-03T11:45:51.408Z,26.33
2022-12-03T11:48:55.777Z,31.60
2022-12-03T11:52:00.834Z,36.60
2022-12-03T11:55:14.665Z,36.70
2022-12-03T11:58:22.397Z,26.45
2022-12-03T12:01:39.860Z,42.85
2022-12-03T12:04:46.654Z,42.08
2022-12-03T12:07:49.079Z,33.17
2022-12-03T12:10:51.275Z,41.63
2022-12-03T12:13:55.516Z,38.15
2022-12-03T12:16:58.563Z,40.78
2022-12-03T12:20:26.830Z,43.63
2022-12-03T12:23:29.615Z,46.83
2022-12-03T12:26:31.554Z,48.30
2022-12-03T12:29:34.781Z,41.45
2022-12-03T12:32:48.680Z,45.65
2022-12-03T12:35:51.301Z,36.47
2022-12-03T12:38:53.623Z,35.13
2022-12-03T12:42:06.637Z,28.40
2022-12-03T12:45:32.679Z,37.80
2022-12-03T12:48:35.712Z,32.03
2022-12-03T12:51:49.820Z,34.22
2022-12-03T12:54:51.852Z,28.83
2022-12-03T12:58:00.105Z,38.70
2022-12-03T13:01:06.607Z,34.38
2022-12-03T13:04:20.432Z,34.63
2022-12-03T13:07:22.605Z,30.25
2022-12-03T13:10:36.826Z,31.17
2022-12-03T13:13:44.126Z,34.97
2022-12-03T13:16:48.466Z,35.55
2022-12-03T13:20:00.519Z,35.72
2022-12-03T13:23:26.313Z,32.83
2022-12-03T13:26:39.879Z,33.50
2022-12-03T13:29:43.446Z,32.83
2022-12-03T13:32:46.203Z,27.23
2022-12-03T13:35:48.215Z,33.50
2022-12-03T13:38:50.193Z,35.10
2022-12-03T13:42:12.095Z,29.93
2022-12-03T13:45:14.008Z,33.20
2022-12-03T13:48:23.593Z,32.83
2022-12-03T13:51:33.030Z,36.45
2022-12-03T13:54:39.038Z,34.83
2022-12-03T13:57:40.976Z,39.57
2022-12-03T14:00:43.408Z,38.10
2022-12-03T14:03:45.500Z,30.92
2022-12-03T14:06:47.610Z,36.15
2022-12-03T14:09:49.654Z,31.00
2022-12-03T14:12:51.783Z,31.23
2022-12-03T14:15:54.037Z,32.87
2022-12-03T14:18:56.257Z,34.95
2022-12-03T14:22:00.623Z,33.33
2022-12-03T14:25:02.713Z,34.72
2022-12-03T14:28:08.739Z,31.70
2022-12-03T14:31:10.798Z,30.27
2022-12-03T14:34:12.763Z,31.95
2022-12-03T14:37:15.265Z,33.03
2022-12-03T14:40:21.467Z,29.80
2022-12-03T14:43:24.031Z,28.50
2022-12-03T14:46:26.114Z,29.73
2022-12-03T14:49:28.226Z,27.30
2022-12-03T14:52:30.203Z,32.35
2022-12-03T14:55:32.327Z,41.00
2022-12-03T14:58:34.695Z,72.80
2022-12-03T15:01:36.935Z,53.70
2022-12-03T15:04:40.595Z,45.25
2022-12-03T15:07:42.950Z,45.97
2022-12-03T15:10:44.966Z,44.60
2022-12-03T15:13:46.973Z,29.77
2022-12-03T15:16:49.058Z,32.17
2022-12-03T15:19:51.402Z,31.25
2022-12-03T15:22:53.902Z,29.55
2022-12-03T15:25:55.967Z,28.70
2022-12-03T15:28:58.131Z,31.33
2022-12-03T15:32:01.151Z,34.13
2022-12-03T15:35:03.420Z,33.25
2022-12-03T15:38:05.568Z,32.00
2022-12-03T15:41:24.823Z,32.20
2022-12-03T15:44:26.847Z,34.03
2022-12-03T15:47:28.864Z,33.87
2022-12-03T15:50:34.527Z,33.45
2022-12-03T15:53:40.080Z,36.80
2022-12-03T15:56:42.505Z,30.98
2022-12-03T15:59:44.991Z,32.43
2022-12-03T16:02:52.682Z,32.97
2022-12-03T16:05:55.157Z,31.70
2022-12-03T16:08:57.514Z,28.70
2022-12-03T16:11:59.585Z,28.60
2022-12-03T16:15:01.688Z,34.80
2022-12-03T16:18:04.175Z,35.17
2022-12-03T16:21:06.729Z,33.22
2022-12-03T16:24:09.138Z,30.67
2022-12-03T16:27:11.514Z,29.75
2022-12-03T16:30:14.649Z,33.23
2022-12-03T16:33:17.712Z,34.17
2022-12-03T16:36:21.121Z,32.33
2022-12-03T16:39:23.127Z,32.38
2022-12-03T16:42:25.741Z,34.55
2022-12-03T16:45:47.266Z,33.57
2022-12-03T16:48:50.217Z,35.90
2022-12-03T16:51:52.283Z,35.75
2022-12-03T16:54:54.269Z,31.48
2022-12-03T16:57:56.216Z,32.15
2022-12-03T17:00:58.651Z,32.87
2022-12-03T17:04:00.699Z,37.17
2022-12-03T17:07:02.715Z,28.62
2022-12-03T17:10:05.588Z,33.50
2022-12-03T17:13:09.968Z,33.42
2022-12-03T17:16:12.754Z,26.70
2022-12-03T17:19:15.488Z,28.50
2022-12-03T17:22:17.874Z,30.95
2022-12-03T17:25:19.986Z,33.13
2022-12-03T17:28:21.917Z,27.45
2022-12-03T17:31:24.904Z,28.50
2022-12-03T17:34:27.123Z,31.47
2022-12-03T17:37:29.345Z,33.55
2022-12-03T17:40:31.388Z,28.62
2022-12-03T17:43:33.777Z,37.70
2022-12-03T17:46:37.236Z,31.73
2022-12-03T17:49:39.362Z,34.70
2022-12-03T17:52:41.436Z,33.97
2022-12-03T17:55:45.204Z,40.10
2022-12-03T17:58:47.381Z,31.62
2022-12-03T18:01:49.580Z,34.90
2022-12-03T18:04:51.619Z,45.33
2022-12-03T18:07:53.664Z,42.58
2022-12-03T18:10:59.319Z,42.78
2022-12-03T18:14:01.768Z,43.65
2022-12-03T18:17:05.196Z,36.00
2022-12-03T18:20:08.269Z,34.63
2022-12-03T18:23:11.168Z,34.30
2022-12-03T18:26:14.232Z,39.80
2022-12-03T18:29:16.445Z,48.53
2022-12-03T18:32:29.241Z,43.77
2022-12-03T18:35:31.970Z,40.53
2022-12-03T18:38:34.695Z,42.33
2022-12-03T18:41:36.921Z,45.17
2022-12-03T18:44:39.114Z,35.85
2022-12-03T18:47:41.312Z,39.83
2022-12-03T18:50:43.794Z,37.57
2022-12-03T18:53:45.959Z,39.13
2022-12-03T18:56:47.974Z,30.92
2022-12-03T18:59:50.226Z,33.63
2022-12-03T19:03:08.134Z,35.57
2022-12-03T19:06:18.603Z,33.60
2022-12-03T19:09:28.612Z,35.13
2022-12-03T19:12:31.696Z,34.72
2022-12-03T19:15:39.093Z,35.08
2022-12-03T19:18:41.928Z,34.50
2022-12-03T19:21:44.867Z,33.97
2022-12-03T19:24:47.545Z,33.83
2022-12-03T19:27:52.373Z,36.28
2022-12-03T19:31:02.295Z,36.53
2022-12-03T19:34:12.236Z,34.97
2022-12-03T19:37:26.707Z,38.70
2022-12-03T19:40:29.331Z,37.00
2022-12-03T19:43:34.873Z,37.92
2022-12-03T19:46:37.923Z,38.83
2022-12-03T19:49:41.604Z,37.53
2022-12-03T19:52:44.132Z,39.97
2022-12-03T19:55:47.764Z,36.92
2022-12-03T19:58:56.327Z,42.33
2022-12-03T20:02:06.982Z,36.78
2022-12-03T20:05:15.325Z,36.00
2022-12-03T20:08:32.883Z,37.67
2022-12-03T20:12:02.692Z,36.92
2022-12-03T20:15:26.477Z,34.00
2022-12-03T20:18:39.215Z,36.80
2022-12-03T20:21:51.243Z,36.20
2022-12-03T20:25:12.056Z,41.13
2022-12-03T20:28:24.206Z,38.92
2022-12-03T20:31:40.773Z,37.53
2022-12-03T20:34:45.757Z,37.58
2022-12-03T20:37:48.163Z,34.37
2022-12-03T20:40:51.387Z,35.77
2022-12-03T20:43:55.084Z,35.20
2022-12-03T20:46:59.347Z,35.10
2022-12-03T20:50:11.788Z,36.25
2022-12-03T20:53:27.163Z,35.67
2022-12-03T20:56:35.009Z,39.03
2022-12-03T20:59:45.905Z,38.40
2022-12-03T21:02:49.050Z,37.47
2022-12-03T21:05:59.326Z,34.42
2022-12-03T21:09:02.635Z,34.33
2022-12-03T21:12:05.306Z,36.43
2022-12-03T21:15:07.862Z,41.40
2022-12-03T21:18:13.091Z,34.70
2022-12-03T21:21:16.661Z,39.75
2022-12-03T21:24:19.184Z,32.93
2022-12-03T21:27:21.938Z,39.83
2022-12-03T21:30:24.193Z,41.28
2022-12-03T21:33:26.800Z,36.70
2022-12-03T21:36:28.839Z,37.88
2022-12-03T21:39:30.975Z,36.87
2022-12-03T21:42:36.450Z,42.70
2022-12-03T21:45:41.282Z,36.58
2022-12-03T21:48:49.082Z,38.38
2022-12-03T21:51:51.290Z,43.03
2022-12-03T21:54:55.266Z,38.27
2022-12-03T21:57:57.443Z,33.33
2022-12-03T22:00:59.458Z,39.63
2022-12-03T22:04:02.215Z,38.92
2022-12-03T22:07:04.994Z,40.35
2022-12-03T22:10:09.516Z,40.83
2022-12-03T22:13:12.207Z,38.70
2022-12-03T22:16:18.046Z,41.80
2022-12-03T22:19:23.579Z,47.17
2022-12-03T22:22:25.605Z,45.05
2022-12-03T22:25:27.583Z,45.50
2022-12-03T22:28:30.052Z,48.67
2022-12-03T22:31:32.461Z,53.10
2022-12-03T22:34:34.619Z,51.45
2022-12-03T22:37:36.731Z,52.70
2022-12-03T22:40:39.706Z,54.53
2022-12-03T22:43:41.848Z,51.80
2022-12-03T22:46:43.909Z,49.85
2022-12-03T22:49:45.884Z,53.75
2022-12-03T22:52:47.982Z,35.90
2022-12-03T22:55:58.576Z,47.27
2022-12-03T22:59:01.141Z,53.43
2022-12-03T23:02:03.189Z,45.05
2022-12-03T23:05:05.580Z,52.50
2022-12-03T23:08:11.023Z,54.00
2022-12-03T23:11:13.566Z,43.87
2022-12-03T23:14:15.667Z,48.27
2022-12-03T23:17:17.743Z,46.03
2022-12-03T23:20:19.840Z,31.15
2022-12-03T23:23:24.183Z,55.58
2022-12-03T23:26:27.123Z,52.80
2022-12-03T23:29:29.392Z,49.60
2022-12-03T23:32:31.431Z,51.10
2022-12-03T23:35:33.965Z,53.13
2022-12-03T23:38:36.107Z,51.22
2022-12-03T23:41:38.102Z,45.93
2022-12-03T23:44:40.157Z,43.97
2022-12-03T23:47:42.154Z,48.87
2022-12-03T23:50:44.493Z,50.38
2022-12-03T23:53:47.067Z,49.83
2022-12-03T23:56:49.418Z,49.23
2022-12-03T23:59:51.582Z,49.27
